Time;durP1;ratioP1;P1;durP2;ratioP2;P2;SDS_P1;SDS_P2;PMS_P1;PMS_P2;Temp;Humidity;BMP_temperature;BMP_pressure;BME280_temperature;BME280_humidity;BME280_pressure;Samples;Min_cycle;Max_cycle;Signal;HPM_P1;HPM_P2
2022/10/18 00:02:07;;;;;;;0.77;0.70;;;12.40;99.90;;;;;;5073842;28;20044;-75
2022/10/18 00:04:32;;;;;;;0.80;0.63;;;12.40;99.90;;;;;;5056516;28;20548;-75
2022/10/18 00:06:58;;;;;;;1.55;1.15;;;12.40;99.90;;;;;;5060048;28;20060;-74
2022/10/18 00:09:26;;;;;;;0.50;0.50;;;12.40;99.90;;;;;;5075676;28;20503;-76
2022/10/18 00:11:52;;;;;;;1.20;0.77;;;12.40;99.90;;;;;;5075872;28;20048;-76
2022/10/18 00:14:17;;;;;;;2.33;1.45;;;12.30;99.90;;;;;;5076920;28;20543;-77
2022/10/18 00:16:43;;;;;;;0.20;0.20;;;12.30;99.90;;;;;;5076130;28;20055;-77
2022/10/18 00:19:09;;;;;;;1.75;0.55;;;12.20;99.90;;;;;;5067434;28;20056;-75
2022/10/18 00:21:34;;;;;;;1.17;0.52;;;12.20;99.90;;;;;;5055622;28;20055;-77
2022/10/18 00:24:00;;;;;;;0.80;0.73;;;12.20;99.90;;;;;;5055613;28;20121;-77
2022/10/18 00:26:28;;;;;;;1.08;0.98;;;12.20;99.90;;;;;;5071899;28;20045;-76
2022/10/18 00:28:56;;;;;;;0.93;0.88;;;12.20;99.90;;;;;;5075741;28;20052;-74
2022/10/18 00:31:33;;;;;;;3.50;1.52;;;12.20;99.90;;;;;;5074373;28;20052;-75
2022/10/18 00:34:01;;;;;;;1.27;1.05;;;12.20;99.90;;;;;;5075252;28;20044;-77
2022/10/18 00:36:29;;;;;;;1.27;0.50;;;12.10;99.90;;;;;;5058291;28;20048;-76
2022/10/18 00:38:55;;;;;;;1.33;0.95;;;12.10;99.90;;;;;;5073131;28;20055;-78
2022/10/18 00:41:27;;;;;;;1.08;1.00;;;12.10;99.90;;;;;;5056332;28;20041;-76
2022/10/18 00:43:59;;;;;;;2.50;1.23;;;12.10;99.90;;;;;;5054977;28;20040;-76
2022/10/18 00:46:28;;;;;;;1.80;0.93;;;12.10;99.90;;;;;;5057400;28;20083;-77
2022/10/18 00:48:56;;;;;;;0.82;0.77;;;12.00;99.90;;;;;;5056226;28;20055;-76
2022/10/18 00:51:27;;;;;;;1.17;0.80;;;12.00;99.90;;;;;;5073295;28;20056;-76
2022/10/18 00:53:53;;;;;;;0.57;0.50;;;12.00;99.90;;;;;;5074735;28;20044;-75
2022/10/18 00:56:19;;;;;;;1.80;0.80;;;12.10;99.90;;;;;;5072949;28;20040;-76
2022/10/18 00:58:47;;;;;;;2.10;1.23;;;12.00;99.90;;;;;;5070713;28;20501;-76
2022/10/18 01:01:13;;;;;;;0.88;0.63;;;12.10;99.90;;;;;;5075215;28;20058;-76
2022/10/18 01:03:40;;;;;;;0.22;0.22;;;11.90;99.90;;;;;;5074467;28;20049;-76
2022/10/18 01:06:08;;;;;;;0.63;0.55;;;11.90;99.90;;;;;;5076124;28;20044;-75
2022/10/18 01:08:43;;;;;;;0.52;0.52;;;12.10;99.90;;;;;;5053216;28;20156;-76
2022/10/18 01:11:15;;;;;;;1.55;1.33;;;11.90;99.90;;;;;;5037170;28;20078;-76
2022/10/18 01:14:07;;;;;;;1.17;1.00;;;11.90;99.90;;;;;;5069907;28;20052;-76
2022/10/18 01:16:57;;;;;;;1.60;1.08;;;11.90;99.90;;;;;;5076706;28;20037;-76
2022/10/18 01:19:42;;;;;;;0.35;0.35;;;11.90;99.90;;;;;;5075912;28;20101;-76
2022/10/18 01:22:41;;;;;;;1.40;0.90;;;11.80;99.90;;;;;;5075321;28;20041;-75
2022/10/18 01:25:32;;;;;;;0.77;0.77;;;11.80;99.90;;;;;;5074656;28;20041;-77
2022/10/18 01:28:35;;;;;;;0.65;0.52;;;11.80;99.90;;;;;;5075539;28;20693;-77
2022/10/18 01:31:04;;;;;;;0.77;0.77;;;11.80;99.90;;;;;;5055377;28;20132;-77
2022/10/18 01:33:42;;;;;;;0.55;0.40;;;11.80;99.90;;;;;;5055950;28;20049;-77
2022/10/18 01:36:36;;;;;;;2.33;1.23;;;11.80;99.90;;;;;;5057498;28;20040;-77
2022/10/18 01:39:06;;;;;;;0.85;0.80;;;11.80;99.90;;;;;;5059528;28;20037;-77
2022/10/18 01:41:35;;;;;;;1.05;1.02;;;11.80;99.90;;;;;;5037015;28;20079;-74
2022/10/18 01:44:04;;;;;;;3.20;2.22;;;11.80;99.90;;;;;;5060618;28;20088;-76
2022/10/18 01:46:30;;;;;;;0.82;0.80;;;11.80;99.90;;;;;;5064209;28;20052;-78
2022/10/18 01:48:56;;;;;;;0.98;0.82;;;11.80;99.90;;;;;;5070361;28;20049;-77
2022/10/18 01:51:27;;;;;;;5.30;1.13;;;11.80;99.90;;;;;;5052921;28;20055;-76
2022/10/18 01:53:53;;;;;;;0.47;0.38;;;11.90;99.90;;;;;;5051688;28;20052;-76
2022/10/18 01:56:38;;;;;;;0.47;0.47;;;11.90;99.90;;;;;;5067378;28;20854;-75
2022/10/18 01:59:25;;;;;;;0.50;0.40;;;11.90;99.90;;;;;;5102236;22;20125;-76
2022/10/18 02:02:16;;;;;;;0.85;0.68;;;11.90;99.90;;;;;;5040692;28;20168;-78
2022/10/18 02:04:57;;;;;;;5.57;1.05;;;11.90;99.90;;;;;;5011353;28;20554;-80
2022/10/18 02:07:46;;;;;;;0.40;0.40;;;11.90;99.90;;;;;;5047742;28;20053;-79
2022/10/18 02:10:19;;;;;;;2.72;1.70;;;11.90;99.90;;;;;;5044145;28;20048;-78
2022/10/18 02:12:47;;;;;;;0.88;0.65;;;11.90;99.90;;;;;;5044736;28;20076;-77
2022/10/18 02:15:17;;;;;;;1.85;1.02;;;11.90;99.90;;;;;;5048059;28;20135;-76
2022/10/18 02:17:45;;;;;;;0.38;0.38;;;12.30;99.90;;;;;;5066115;28;20056;-79
2022/10/18 02:20:13;;;;;;;0.38;0.38;;;11.90;99.90;;;;;;5056152;28;20499;-76
2022/10/18 02:22:41;;;;;;;2.45;0.57;;;11.80;99.90;;;;;;5049214;28;20120;-77
2022/10/18 02:25:12;;;;;;;1.75;1.27;;;11.70;99.90;;;;;;5048444;28;20128;-77
2022/10/18 02:27:38;;;;;;;1.45;0.82;;;11.60;99.90;;;;;;5047525;28;20033;-77
2022/10/18 02:30:04;;;;;;;1.98;1.15;;;11.60;99.90;;;;;;5047195;28;20421;-77
2022/10/18 02:32:40;;;;;;;0.35;0.17;;;11.60;99.90;;;;;;5046867;28;20045;-77
2022/10/18 02:35:26;;;;;;;0.47;0.47;;;11.50;99.90;;;;;;5058292;28;20069;-79
2022/10/18 02:37:52;;;;;;;;;;;11.40;99.90;;;;;;5064709;28;20080;-77
2022/10/18 02:40:19;;;;;;;2.05;1.05;;;11.60;99.90;;;;;;5046659;28;20046;-80
2022/10/18 02:42:52;;;;;;;1.77;0.95;;;11.40;99.90;;;;;;5046660;28;20037;-80
2022/10/18 02:45:18;;;;;;;0.65;0.43;;;11.50;99.90;;;;;;5045948;28;20056;-77
2022/10/18 02:47:43;;;;;;;1.90;0.68;;;11.50;99.90;;;;;;5047089;28;20045;-77
2022/10/18 02:50:09;;;;;;;0.95;0.85;;;11.60;99.90;;;;;;5045918;28;20106;-77
2022/10/18 02:52:35;;;;;;;1.17;1.02;;;11.70;99.90;;;;;;5047101;28;20095;-77
2022/10/18 02:55:01;;;;;;;1.83;1.40;;;11.70;99.90;;;;;;5046210;28;20454;-79
2022/10/18 02:57:27;;;;;;;1.85;1.10;;;12.80;99.90;;;;;;5046007;28;20051;-77
2022/10/18 02:59:53;;;;;;;1.20;0.90;;;11.80;99.90;;;;;;5045986;28;20132;-77
2022/10/18 03:02:18;;;;;;;0.65;0.43;;;11.90;99.90;;;;;;5046477;28;20056;-77
2022/10/18 03:04:44;;;;;;;1.13;0.68;;;12.00;99.90;;;;;;5045632;28;20448;-78
2022/10/18 03:07:09;;;;;;;1.30;1.10;;;12.00;99.90;;;;;;5046368;28;20049;-77
2022/10/18 03:09:35;;;;;;;2.95;1.52;;;12.10;99.90;;;;;;5045781;28;20044;-78
2022/10/18 03:12:00;;;;;;;1.13;1.02;;;12.10;99.90;;;;;;5046223;28;20049;-77
2022/10/18 03:14:26;;;;;;;1.25;0.95;;;12.10;99.90;;;;;;5046358;28;20049;-77
2022/10/18 03:16:52;;;;;;;0.80;0.75;;;12.10;99.90;;;;;;5046070;28;20048;-77
2022/10/18 03:19:17;;;;;;;0.45;0.45;;;12.20;99.90;;;;;;5045085;28;20055;-77
2022/10/18 03:21:43;;;;;;;0.95;0.85;;;12.20;99.90;;;;;;5045839;28;20045;-78
2022/10/18 03:24:09;;;;;;;1.38;1.15;;;12.30;99.90;;;;;;5045326;28;20132;-77
2022/10/18 03:26:34;;;;;;;1.95;0.93;;;12.30;99.90;;;;;;5045629;28;20163;-80
2022/10/18 03:29:00;;;;;;;8.02;1.33;;;12.30;99.90;;;;;;5045846;28;20056;-77
2022/10/18 03:31:26;;;;;;;1.20;0.98;;;12.30;99.90;;;;;;5045603;28;20522;-77
2022/10/18 03:33:51;;;;;;;0.68;0.52;;;12.30;99.90;;;;;;5045866;28;20081;-77
2022/10/18 03:36:17;;;;;;;0.75;0.75;;;12.30;99.90;;;;;;5045533;28;20048;-78
2022/10/18 03:38:43;;;;;;;0.28;0.17;;;12.30;99.90;;;;;;5045463;28;20430;-77
2022/10/18 03:41:08;;;;;;;3.30;1.17;;;12.30;99.90;;;;;;5045198;28;20052;-80
2022/10/18 03:43:34;;;;;;;1.42;1.08;;;12.30;99.90;;;;;;5045245;28;20393;-77
2022/10/18 03:46:00;;;;;;;0.82;0.55;;;12.30;99.90;;;;;;5045564;28;20041;-80
2022/10/18 03:48:26;;;;;;;1.48;0.82;;;12.30;99.90;;;;;;5045269;28;20045;-77
2022/10/18 03:50:51;;;;;;;0.98;0.68;;;12.30;99.90;;;;;;5045499;28;20052;-79
2022/10/18 03:53:17;;;;;;;0.52;0.52;;;12.30;99.90;;;;;;5045568;28;20049;-77
2022/10/18 03:55:42;;;;;;;2.50;0.98;;;12.30;99.90;;;;;;5045676;28;20116;-76
2022/10/18 03:58:08;;;;;;;0.85;0.73;;;12.30;99.90;;;;;;5045411;28;20142;-78
2022/10/18 04:00:34;;;;;;;0.70;0.60;;;12.30;99.90;;;;;;5044881;28;20057;-77
2022/10/18 04:03:00;;;;;;;1.20;0.90;;;12.40;99.90;;;;;;5027375;28;20451;-77
2022/10/18 04:05:27;;;;;;;0.55;0.43;;;12.30;99.90;;;;;;5045120;28;20162;-77
2022/10/18 04:07:53;;;;;;;1.40;1.27;;;12.30;99.90;;;;;;5045420;28;20045;-77
2022/10/18 04:10:19;;;;;;;1.70;1.15;;;12.40;99.90;;;;;;5044918;28;20534;-77
2022/10/18 04:12:45;;;;;;;2.47;1.55;;;12.40;99.90;;;;;;5046102;28;20053;-79
2022/10/18 04:15:11;;;;;;;0.52;0.22;;;12.30;99.90;;;;;;5045616;28;20047;-77
2022/10/18 04:17:36;;;;;;;0.22;0.22;;;12.40;99.90;;;;;;5044897;28;20509;-80
2022/10/18 04:20:02;;;;;;;1.98;1.77;;;12.30;99.90;;;;;;5044707;28;20045;-78
2022/10/18 04:22:28;;;;;;;1.52;1.00;;;12.30;99.90;;;;;;5044287;28;20492;-77
2022/10/18 04:24:55;;;;;;;0.50;0.50;;;12.30;99.90;;;;;;5045637;28;20049;-78
2022/10/18 04:27:21;;;;;;;0.20;0.20;;;12.30;99.90;;;;;;5045556;28;20071;-77
2022/10/18 04:29:47;;;;;;;1.05;0.82;;;12.20;99.90;;;;;;5045752;28;20045;-79
2022/10/18 04:32:12;;;;;;;0.68;0.68;;;12.20;99.90;;;;;;5044927;28;20040;-77
2022/10/18 04:34:38;;;;;;;0.60;0.52;;;12.10;99.90;;;;;;5045300;28;20037;-78
2022/10/18 04:37:04;;;;;;;0.93;0.80;;;12.40;99.90;;;;;;5044651;28;20127;-78
2022/10/18 04:39:30;;;;;;;0.22;0.22;;;12.10;99.90;;;;;;5044046;28;20047;-77
2022/10/18 04:41:55;;;;;;;0.13;0.10;;;12.10;99.90;;;;;;5044746;28;20048;-78
2022/10/18 04:44:22;;;;;;;1.00;0.35;;;12.00;99.90;;;;;;5044332;28;20044;-79
2022/10/18 04:46:48;;;;;;;0.43;0.43;;;12.20;99.90;;;;;;5044878;28;20041;-77
2022/10/18 04:49:13;;;;;;;0.85;0.22;;;12.00;99.90;;;;;;5044993;28;20076;-78
2022/10/18 04:51:39;;;;;;;1.95;0.82;;;12.00;99.90;;;;;;5044589;28;20029;-78
2022/10/18 04:54:05;;;;;;;1.80;1.05;;;12.00;99.90;;;;;;5044725;28;20506;-78
2022/10/18 04:56:31;;;;;;;1.63;0.95;;;12.00;99.90;;;;;;5044500;28;20124;-76
2022/10/18 04:58:57;;;;;;;1.58;0.30;;;11.90;99.90;;;;;;5043384;28;20144;-77
2022/10/18 05:01:23;;;;;;;1.27;0.90;;;11.90;99.90;;;;;;5042754;28;20120;-79
2022/10/18 05:03:53;;;;;;;0.47;0.45;;;12.40;99.90;;;;;;5042780;28;20128;-78
2022/10/18 05:06:19;;;;;;;0.60;0.30;;;11.80;99.90;;;;;;5043134;28;20046;-77
2022/10/18 05:08:45;;;;;;;1.88;1.02;;;11.80;99.90;;;;;;5042229;28;20064;-77
2022/10/18 05:11:10;;;;;;;0.95;0.38;;;11.90;99.90;;;;;;5043291;28;20423;-78
2022/10/18 05:13:37;;;;;;;1.50;1.00;;;12.20;99.90;;;;;;5043083;28;20055;-79
2022/10/18 05:16:04;;;;;;;1.02;0.90;;;11.90;99.90;;;;;;5039662;28;20053;-77
2022/10/18 05:18:29;;;;;;;1.05;0.93;;;11.90;99.90;;;;;;5042248;28;20086;-77
2022/10/18 05:20:56;;;;;;;5.25;2.35;;;11.90;99.90;;;;;;5044202;28;20053;-77
2022/10/18 05:23:22;;;;;;;0.52;0.47;;;11.80;99.90;;;;;;5043696;28;20097;-78
2022/10/18 05:25:47;;;;;;;0.77;0.70;;;11.90;99.90;;;;;;5044478;28;20119;-77
2022/10/18 05:28:13;;;;;;;1.42;0.93;;;11.70;99.90;;;;;;5044975;28;20246;-77
2022/10/18 05:30:40;;;;;;;0.77;0.77;;;11.60;99.90;;;;;;5044937;28;20594;-77
2022/10/18 05:33:06;;;;;;;1.00;0.57;;;11.60;99.90;;;;;;5045097;28;20049;-79
2022/10/18 05:35:32;;;;;;;1.17;0.77;;;11.70;99.90;;;;;;5044580;28;20049;-77
2022/10/18 05:37:58;;;;;;;1.15;0.95;;;11.70;99.90;;;;;;5043911;28;20048;-78
2022/10/18 05:40:23;;;;;;;1.65;1.10;;;11.70;99.90;;;;;;5043829;28;20041;-77
2022/10/18 05:42:52;;;;;;;2.15;1.60;;;11.70;99.90;;;;;;5044698;28;20045;-79
2022/10/18 05:45:17;;;;;;;2.17;1.02;;;11.70;99.90;;;;;;5044985;28;20045;-78
2022/10/18 05:47:43;;;;;;;0.77;0.77;;;11.60;99.90;;;;;;5046631;28;20048;-80
2022/10/18 05:50:09;;;;;;;1.08;0.80;;;11.60;99.90;;;;;;5048488;28;20052;-79
2022/10/18 05:52:34;;;;;;;0.52;0.35;;;11.60;99.90;;;;;;5048411;28;20488;-77
2022/10/18 05:55:00;;;;;;;0.65;0.35;;;11.90;99.90;;;;;;5048897;28;20045;-77
2022/10/18 05:57:26;;;;;;;1.45;0.75;;;11.60;99.90;;;;;;5048236;28;20048;-77
2022/10/18 05:59:51;;;;;;;1.25;0.80;;;11.50;99.90;;;;;;5048142;28;20326;-79
2022/10/18 06:02:17;;;;;;;1.83;1.48;;;11.50;99.90;;;;;;5047990;28;20049;-77
2022/10/18 06:04:43;;;;;;;0.00;0.00;;;11.50;99.90;;;;;;5054558;28;20163;-82
2022/10/18 06:07:10;;;;;;;0.45;0.45;;;11.50;99.90;;;;;;5060713;28;20119;-77
2022/10/18 06:09:36;;;;;;;0.08;0.08;;;11.50;99.90;;;;;;5046790;28;20338;-77
2022/10/18 06:12:03;;;;;;;0.82;0.43;;;11.40;99.90;;;;;;5045821;28;20045;-77
2022/10/18 06:14:29;;;;;;;1.10;1.00;;;11.40;99.90;;;;;;5046183;28;20055;-77
2022/10/18 06:16:55;;;;;;;0.95;0.68;;;11.40;99.90;;;;;;5045716;28;20462;-76
2022/10/18 06:19:23;;;;;;;3.03;1.95;;;11.40;99.90;;;;;;5045020;28;20055;-79
2022/10/18 06:21:49;;;;;;;1.40;1.27;;;11.40;99.90;;;;;;5045273;28;20041;-80
2022/10/18 06:24:15;;;;;;;0.40;0.30;;;11.30;99.90;;;;;;5045455;28;20041;-79
2022/10/18 06:26:40;;;;;;;1.10;0.98;;;11.30;99.90;;;;;;5045576;28;20380;-78
2022/10/18 06:29:06;;;;;;;0.22;0.20;;;11.20;99.90;;;;;;5045312;28;20073;-77
2022/10/18 06:31:32;;;;;;;0.30;0.30;;;11.20;99.90;;;;;;5045882;28;20451;-79
2022/10/18 06:33:57;;;;;;;1.95;0.65;;;11.20;99.90;;;;;;5045458;28;20045;-77
2022/10/18 06:36:24;;;;;;;2.00;1.67;;;11.20;99.90;;;;;;5045957;28;20056;-77
2022/10/18 06:38:50;;;;;;;0.55;0.20;;;11.20;99.90;;;;;;5044866;28;20055;-77
2022/10/18 06:41:20;;;;;;;1.20;0.75;;;11.20;99.90;;;;;;5045540;28;20053;-80
2022/10/18 06:43:50;;;;;;;0.85;0.75;;;11.10;99.90;;;;;;5046212;28;20123;-77
2022/10/18 06:46:16;;;;;;;1.10;1.00;;;11.10;99.90;;;;;;5045244;28;20037;-77
2022/10/18 06:48:41;;;;;;;1.88;0.65;;;11.10;99.90;;;;;;5044460;28;20053;-75
2022/10/18 06:51:07;;;;;;;0.73;0.63;;;11.10;99.90;;;;;;5044496;28;20041;-77
2022/10/18 06:53:38;;;;;;;4.65;1.85;;;11.00;99.90;;;;;;5026041;28;20132;-76
2022/10/18 06:56:07;;;;;;;0.35;0.35;;;11.00;99.90;;;;;;5044223;28;20124;-78
2022/10/18 06:58:34;;;;;;;1.58;0.77;;;11.00;99.90;;;;;;5042999;28;20060;-77
2022/10/18 07:01:14;;;;;;;0.32;0.32;;;11.10;99.90;;;;;;5041602;28;20113;-77
2022/10/18 07:03:41;;;;;;;0.80;0.63;;;11.10;99.90;;;;;;5041594;28;20097;-79
2022/10/18 07:06:09;;;;;;;0.85;0.60;;;11.20;99.90;;;;;;5042109;28;20041;-77
2022/10/18 07:08:35;;;;;;;0.13;0.10;;;11.20;99.90;;;;;;5042421;28;20057;-76
2022/10/18 07:11:01;;;;;;;1.33;0.90;;;11.20;99.90;;;;;;5041913;28;20048;-77
2022/10/18 07:13:31;;;;;;;1.33;1.17;;;11.30;99.90;;;;;;5041826;28;20187;-79
2022/10/18 07:16:02;;;;;;;0.85;0.75;;;11.30;99.90;;;;;;5041783;28;20045;-77
2022/10/18 07:18:27;;;;;;;1.85;0.98;;;11.20;99.90;;;;;;5041584;28;20522;-79
2022/10/18 07:20:53;;;;;;;0.00;0.00;;;11.30;99.90;;;;;;5038076;28;20083;-77
2022/10/18 07:23:19;;;;;;;0.10;0.10;;;11.30;99.90;;;;;;5035178;28;20111;-76
2022/10/18 07:25:45;;;;;;;0.30;0.30;;;11.30;99.90;;;;;;5032282;28;20255;-79
2022/10/18 07:28:11;;;;;;;0.85;0.32;;;11.40;99.90;;;;;;5030937;28;20153;-77
2022/10/18 07:30:37;;;;;;;1.00;0.63;;;11.40;99.90;;;;;;5036516;28;20123;-77
2022/10/18 07:33:03;;;;;;;0.93;0.82;;;11.40;99.90;;;;;;5041117;28;20102;-77
2022/10/18 07:35:28;;;;;;;0.30;0.30;;;11.40;99.90;;;;;;5041788;28;20044;-78
2022/10/18 07:37:54;;;;;;;0.68;0.68;;;11.40;99.90;;;;;;5041668;28;20126;-77
2022/10/18 07:40:20;;;;;;;0.20;0.20;;;11.40;99.90;;;;;;5041301;28;20052;-79
2022/10/18 07:42:46;;;;;;;1.08;0.75;;;11.40;99.90;;;;;;5041124;28;20511;-77
2022/10/18 07:45:12;;;;;;;0.13;0.13;;;11.40;99.90;;;;;;5040984;28;20041;-76
2022/10/18 07:47:38;;;;;;;0.43;0.40;;;11.50;99.90;;;;;;5040808;28;20112;-78
2022/10/18 07:50:04;;;;;;;1.30;0.98;;;11.60;99.90;;;;;;5041408;28;20471;-78
2022/10/18 07:52:30;;;;;;;0.65;0.50;;;11.60;99.90;;;;;;5041014;28;20044;-77
2022/10/18 07:54:55;;;;;;;0.60;0.47;;;11.60;99.90;;;;;;5040878;28;20459;-77
2022/10/18 07:57:22;;;;;;;1.65;1.05;;;11.60;99.90;;;;;;5040902;28;20041;-77
2022/10/18 07:59:51;;;;;;;0.57;0.50;;;11.60;99.90;;;;;;5040832;28;20072;-77
2022/10/18 08:02:16;;;;;;;2.35;0.90;;;11.70;99.90;;;;;;5040466;28;20443;-78
2022/10/18 08:04:42;;;;;;;1.45;0.47;;;11.70;99.90;;;;;;5040540;28;20052;-76
2022/10/18 08:07:08;;;;;;;0.05;0.05;;;11.80;99.90;;;;;;5040459;28;20049;-79
2022/10/18 08:09:33;;;;;;;0.75;0.35;;;11.80;99.90;;;;;;5040808;28;20049;-78
2022/10/18 08:11:59;;;;;;;0.22;0.20;;;11.80;99.90;;;;;;5040653;28;20084;-77
2022/10/18 08:14:24;;;;;;;0.65;0.45;;;11.70;99.90;;;;;;5041607;28;20435;-80
2022/10/18 08:16:50;;;;;;;3.42;1.20;;;11.60;99.90;;;;;;5040759;28;20044;-79
2022/10/18 08:19:16;;;;;;;0.55;0.50;;;11.50;99.90;;;;;;5040504;28;20044;-78
2022/10/18 08:21:41;;;;;;;0.10;0.10;;;11.50;99.90;;;;;;5039813;28;20320;-79
2022/10/18 08:24:07;;;;;;;0.20;0.20;;;11.40;99.90;;;;;;5040683;28;20045;-79
2022/10/18 08:26:32;;;;;;;0.60;0.60;;;11.40;99.90;;;;;;5053649;28;20048;-77
2022/10/18 08:28:58;;;;;;;0.10;0.10;;;11.40;99.90;;;;;;5060026;28;20442;-78
2022/10/18 08:31:24;;;;;;;0.10;0.10;;;11.30;99.90;;;;;;5060506;28;20284;-78
2022/10/18 08:33:50;;;;;;;3.10;0.52;;;11.40;99.90;;;;;;5060189;28;20052;-78
2022/10/18 08:36:16;;;;;;;0.40;0.40;;;11.30;99.90;;;;;;5059916;28;20044;-77
2022/10/18 08:38:42;;;;;;;1.38;0.40;;;11.30;99.90;;;;;;5059781;28;20438;-76
2022/10/18 08:41:41;;;;;;;0.75;0.75;;;11.40;99.90;;;;;;5041623;28;20048;-80
2022/10/18 08:44:23;;;;;;;0.98;0.80;;;11.40;99.90;;;;;;5059175;28;20083;-79
2022/10/18 08:46:57;;;;;;;0.30;0.10;;;11.40;99.90;;;;;;5059841;28;20052;-77
2022/10/18 08:49:37;;;;;;;0.03;0.03;;;11.40;99.90;;;;;;5059827;28;20083;-78
2022/10/18 08:52:05;;;;;;;2.33;0.77;;;11.30;99.90;;;;;;5059553;28;20394;-77
2022/10/18 08:54:36;;;;;;;0.50;0.40;;;11.30;99.90;;;;;;5060569;28;20127;-78
2022/10/18 08:57:09;;;;;;;0.60;0.50;;;11.40;99.90;;;;;;5060163;28;20098;-79
2022/10/18 08:59:39;;;;;;;0.40;0.40;;;11.50;99.90;;;;;;5059861;28;20423;-78
2022/10/18 09:02:19;;;;;;;0.25;0.25;;;11.50;99.90;;;;;;5059917;28;20068;-78
2022/10/18 09:04:47;;;;;;;1.08;1.02;;;11.60;99.90;;;;;;5059925;28;20036;-78
2022/10/18 09:07:39;;;;;;;3.40;0.60;;;11.50;99.90;;;;;;5059827;28;20440;-78
2022/10/18 09:10:23;;;;;;;1.95;0.45;;;11.60;99.90;;;;;;5045257;28;20056;-80
2022/10/18 09:13:14;;;;;;;3.60;1.17;;;11.80;99.90;;;;;;5060052;28;20494;-78
2022/10/18 09:15:56;;;;;;;1.40;1.27;;;11.90;99.90;;;;;;5060168;28;20102;-79
2022/10/18 09:18:43;;;;;;;1.55;0.77;;;12.00;99.90;;;;;;5059940;28;20067;-79
2022/10/18 09:21:35;;;;;;;3.03;0.68;;;12.10;99.90;;;;;;5060449;28;20048;-79
2022/10/18 09:24:24;;;;;;;3.92;0.93;;;12.10;99.90;;;;;;5063693;28;20048;-78
2022/10/18 09:26:56;;;;;;;2.30;1.02;;;12.10;99.90;;;;;;5063727;28;20506;-78
2022/10/18 09:29:37;;;;;;;1.70;0.80;;;12.20;99.90;;;;;;5063618;28;20101;-79
2022/10/18 09:32:19;;;;;;;1.10;0.95;;;12.30;99.90;;;;;;5063631;28;20079;-79
2022/10/18 09:35:12;;;;;;;0.17;0.17;;;12.40;99.90;;;;;;5063277;28;20123;-78
2022/10/18 09:37:39;;;;;;;0.68;0.25;;;12.50;99.90;;;;;;5063966;28;20557;-81
2022/10/18 09:40:28;;;;;;;3.33;1.45;;;12.50;99.90;;;;;;5063625;28;20174;-80
2022/10/18 09:43:06;;;;;;;2.30;0.95;;;12.60;99.90;;;;;;5063329;28;20060;-80
2022/10/18 09:45:38;;;;;;;12.18;2.78;;;12.70;99.90;;;;;;5063290;28;20095;-81
2022/10/18 09:48:30;;;;;;;0.40;0.40;;;12.80;99.90;;;;;;5064678;28;20104;-82
2022/10/18 09:51:01;;;;;;;1.65;0.10;;;12.90;99.90;;;;;;5055247;28;20449;-81
2022/10/18 09:53:36;;;;;;;1.25;0.98;;;13.00;99.90;;;;;;5064737;28;20141;-81
2022/10/18 09:56:36;;;;;;;0.30;0.30;;;13.00;99.90;;;;;;5063893;28;20518;-81
2022/10/18 09:59:01;;;;;;;0.80;0.30;;;13.10;99.90;;;;;;4992390;28;20093;-81
2022/10/18 10:01:32;;;;;;;0.43;0.15;;;13.10;99.90;;;;;;5064721;28;20091;-82
2022/10/18 10:03:57;;;;;;;0.35;0.30;;;13.20;99.90;;;;;;5064815;28;20049;-79
2022/10/18 10:06:26;;;;;;;0.40;0.40;;;13.20;99.90;;;;;;5064334;28;20051;-80
2022/10/18 10:09:06;;;;;;;4.28;2.47;;;13.20;99.90;;;;;;5064739;28;20052;-80
2022/10/18 10:11:44;;;;;;;3.70;0.98;;;13.10;99.90;;;;;;5064761;28;20060;-81
2022/10/18 10:14:25;;;;;;;0.52;0.43;;;13.20;99.90;;;;;;5064115;28;20044;-81
2022/10/18 10:16:51;;;;;;;0.00;0.00;;;13.30;99.90;;;;;;5062570;28;20836;-81
2022/10/18 10:19:38;;;;;;;1.65;0.85;;;13.30;99.90;;;;;;5062073;28;20048;-82
2022/10/18 10:22:11;;;;;;;0.45;0.43;;;13.30;99.90;;;;;;5062116;28;20510;-80
2022/10/18 10:24:52;;;;;;;0.17;0.17;;;13.40;99.90;;;;;;5062770;28;20055;-81
2022/10/18 10:27:31;;;;;;;1.55;0.47;;;13.50;99.90;;;;;;5062182;28;20051;-81
2022/10/18 10:30:00;;;;;;;0.00;0.00;;;13.60;99.90;;;;;;5062634;28;20048;-81
2022/10/18 10:32:28;;;;;;;0.00;0.00;;;13.70;99.90;;;;;;5062019;28;20044;-82
2022/10/18 10:34:54;;;;;;;0.10;0.10;;;13.80;99.90;;;;;;5061424;28;20476;-80
2022/10/18 10:37:38;;;;;;;1.02;0.90;;;14.00;99.90;;;;;;5062118;28;20094;-80
2022/10/18 10:40:19;;;;;;;0.43;0.43;;;14.20;99.90;;;;;;5062615;28;20040;-79
2022/10/18 10:42:58;;;;;;;0.35;0.35;;;14.40;99.90;;;;;;5062243;28;20490;-81
2022/10/18 10:45:26;;;;;;;0.00;0.00;;;14.70;99.90;;;;;;5062308;28;20532;-81
2022/10/18 10:47:53;;;;;;;0.00;0.00;;;14.90;99.90;;;;;;5062545;28;20114;-80
2022/10/18 10:50:27;;;;;;;3.17;1.00;;;15.30;99.90;;;;;;5062425;28;20398;-81
2022/10/18 10:52:53;;;;;;;0.40;0.30;;;15.30;1.00;;;;;;5062306;28;20055;-78
2022/10/18 10:55:24;;;;;;;0.47;0.28;;;15.50;99.90;;;;;;5062395;28;20041;-80
2022/10/18 10:57:51;;;;;;;1.45;0.65;;;15.60;54.60;;;;;;5062603;28;20490;-78
2022/10/18 11:00:37;;;;;;;0.20;0.20;;;15.30;99.90;;;;;;5061802;28;20152;-80
2022/10/18 11:03:11;;;;;;;0.10;0.10;;;14.80;99.90;;;;;;5061980;28;20551;-80
2022/10/18 11:05:59;;;;;;;0.10;0.10;;;14.70;99.90;;;;;;5062183;28;20049;-79
2022/10/18 11:08:30;;;;;;;0.17;0.13;;;14.60;99.90;;;;;;5061992;28;20110;-79
2022/10/18 11:11:20;;;;;;;11.95;0.45;;;14.70;1.00;;;;;;5061888;28;20080;-80
2022/10/18 11:13:52;;;;;;;0.98;0.88;;;15.00;42.30;;;;;;5062021;28;20040;-79
2022/10/18 11:16:55;;;;;;;0.10;0.10;;;15.40;91.40;;;;;;5062466;28;20040;-79
2022/10/18 11:19:47;;;;;;;0.63;0.63;;;15.60;99.90;;;;;;5062044;28;20091;-79
2022/10/18 11:22:18;;;;;;;0.00;0.00;;;15.90;99.90;;;;;;5061844;28;20068;-77
2022/10/18 11:24:44;;;;;;;0.10;0.10;;;16.10;99.90;;;;;;5061638;28;20119;-79
2022/10/18 11:27:23;;;;;;;2.17;0.38;;;16.10;99.90;;;;;;5063547;28;20138;-79
2022/10/18 11:30:12;;;;;;;0.13;0.13;;;16.10;99.90;;;;;;5064403;28;20135;-79
2022/10/18 11:33:23;;;;;;;0.30;0.30;;;15.90;99.90;;;;;;5064031;28;20086;-79
2022/10/18 11:36:03;;;;;;;0.85;0.43;;;15.90;99.90;;;;;;4981876;28;20173;-79
2022/10/18 11:38:50;;;;;;;0.10;0.08;;;16.20;34.10;;;;;;4981487;28;20624;-78
2022/10/18 11:41:29;;;;;;;0.93;0.70;;;15.90;99.90;;;;;;5038976;28;20049;-78
2022/10/18 11:43:58;;;;;;;0.00;0.00;;;15.90;99.90;;;;;;5063090;28;20127;-80
2022/10/18 11:46:44;;;;;;;0.95;0.65;;;16.30;55.40;;;;;;5063070;28;20133;-79
2022/10/18 11:49:24;;;;;;;0.00;0.00;;;16.60;99.90;;;;;;5063598;28;20478;-78
2022/10/18 11:52:37;;;;;;;0.63;0.30;;;17.10;1.00;;;;;;5063313;28;20056;-78
2022/10/18 11:55:38;;;;;;;0.20;0.20;;;17.50;99.90;;;;;;5042012;28;20056;-79
2022/10/18 11:58:46;;;;;;;6.32;0.75;;;17.40;99.90;;;;;;5062931;28;20080;-79
2022/10/18 12:01:47;;;;;;;0.00;0.00;;;17.20;99.90;;;;;;5063017;28;20056;-78
2022/10/18 12:04:33;;;;;;;1.00;0.57;;;17.30;1.00;;;;;;5063317;28;20052;-78
2022/10/18 12:07:02;;;;;;;19.42;0.55;;;18.00;68.30;;;;;;5063490;28;20063;-79
2022/10/18 12:09:36;;;;;;;0.20;0.10;;;18.60;99.90;;;;;;5062670;28;20618;-79
2022/10/18 12:12:06;;;;;;;0.57;0.43;;;18.50;1.00;;;;;;5063220;28;20048;-78
2022/10/18 12:14:47;;;;;;;0.00;0.00;;;18.50;99.90;;;;;;5044925;28;20495;-78
2022/10/18 12:17:32;;;;;;;0.40;0.40;;;18.10;99.90;;;;;;5062711;28;20040;-78
2022/10/18 12:20:06;;;;;;;1.70;1.27;;;17.50;99.90;;;;;;5062727;28;20063;-79
2022/10/18 12:22:37;;;;;;;1.55;0.55;;;17.10;99.90;;;;;;5062701;28;20062;-79
2022/10/18 12:25:03;;;;;;;0.20;0.10;;;16.90;99.90;;;;;;5062769;28;20101;-79
2022/10/18 12:27:40;;;;;;;0.20;0.15;;;17.00;99.90;;;;;;5062639;28;20055;-79
2022/10/18 12:30:29;;;;;;;1.10;0.95;;;17.40;99.90;;;;;;5062526;28;20048;-80
2022/10/18 12:33:07;;;;;;;0.10;0.10;;;17.90;1.00;;;;;;5062040;28;20044;-79
2022/10/18 12:35:48;;;;;;;0.00;0.00;;;18.20;99.90;;;;;;5062559;28;20082;-78
2022/10/18 12:38:22;;;;;;;3.40;0.95;;;18.40;99.90;;;;;;5062582;28;20087;-80
2022/10/18 12:40:51;;;;;;;0.50;0.30;;;18.70;99.90;;;;;;5062027;28;20442;-79
2022/10/18 12:43:23;;;;;;;3.03;0.63;;;18.90;99.90;;;;;;5054326;28;20072;-79
2022/10/18 12:45:59;;;;;;;1.55;0.30;;;19.40;99.90;;;;;;5046323;28;20136;-78
2022/10/18 12:48:32;;;;;;;0.80;0.60;;;19.80;1.00;;;;;;5046713;28;20053;-78
2022/10/18 12:51:17;;;;;;;0.28;0.22;;;19.60;1.00;;;;;;5043869;28;20041;-78
2022/10/18 12:53:59;;;;;;;0.00;0.00;;;18.70;1.00;;;;;;5043303;28;20080;-77
2022/10/18 12:56:27;;;;;;;1.25;0.38;;;18.10;1.00;;;;;;5043999;28;20053;-77
2022/10/18 12:59:15;;;;;;;2.05;1.52;;;17.60;99.90;;;;;;5043783;28;20045;-75
2022/10/18 13:01:49;;;;;;;0.32;0.30;;;17.00;99.90;;;;;;5042199;28;20052;-76
2022/10/18 13:04:34;;;;;;;0.47;0.25;;;17.00;99.90;;;;;;5041511;28;20041;-76
2022/10/18 13:07:01;;;;;;;0.00;0.00;;;17.30;95.00;;;;;;5040848;28;20045;-78
2022/10/18 13:09:34;;;;;;;1.75;1.30;;;17.90;99.90;;;;;;5038983;28;20048;-77
2022/10/18 13:12:08;;;;;;;2.72;0.52;;;18.00;1.00;;;;;;5028522;28;20053;-76